Time;durP1;ratioP1;P1;durP2;ratioP2;P2;SDS_P1;SDS_P2;PMS_P1;PMS_P2;Temp;Humidity;BMP_temperature;BMP_pressure;BME280_temperature;BME280_humidity;BME280_pressure;Samples;Min_cycle;Max_cycle;Signal;HPM_P1;HPM_P2
2024/03/03 00:00:35;;;;;;;3.72;3.25;;;12.60;78.60;;;;;;2069391;28;20074;-64
2024/03/03 00:01:36;;;;;;;4.70;3.30;;;12.60;78.70;;;;;;2068729;28;20050;-64
2024/03/03 00:02:40;;;;;;;4.68;3.60;;;12.60;78.60;;;;;;2069502;28;20093;-65
2024/03/03 00:03:40;;;;;;;3.83;3.50;;;12.60;78.50;;;;;;2068996;28;20061;-65
2024/03/03 00:04:41;;;;;;;3.65;3.35;;;12.50;78.40;;;;;;2068452;28;20034;-65
2024/03/03 00:05:41;;;;;;;3.90;3.50;;;12.60;78.60;;;;;;2068318;28;20041;-67
2024/03/03 00:06:45;;;;;;;4.32;3.40;;;12.60;78.70;;;;;;2068403;28;20021;-65
2024/03/03 00:07:45;;;;;;;3.92;3.30;;;12.60;78.70;;;;;;2062106;28;20077;-65
2024/03/03 00:08:48;;;;;;;4.82;3.35;;;12.60;78.50;;;;;;2062386;28;20034;-68
2024/03/03 00:09:52;;;;;;;4.55;3.33;;;12.50;78.40;;;;;;2067828;28;20436;-65
2024/03/03 00:10:53;;;;;;;3.88;3.33;;;12.50;78.40;;;;;;2069672;28;20073;-65
2024/03/03 00:11:53;;;;;;;5.30;3.67;;;12.60;78.60;;;;;;2067941;28;20672;-66
2024/03/03 00:12:57;;;;;;;5.50;3.10;;;12.60;78.50;;;;;;2067616;28;20077;-66
2024/03/03 00:13:58;;;;;;;3.72;3.25;;;12.60;78.60;;;;;;2060146;28;20032;-65
2024/03/03 00:14:58;;;;;;;5.25;3.30;;;12.60;78.50;;;;;;2060284;28;20110;-65
2024/03/03 00:15:59;;;;;;;3.97;2.83;;;12.60;78.60;;;;;;2071035;28;20041;-65
2024/03/03 00:16:59;;;;;;;4.32;3.00;;;12.50;78.50;;;;;;2069795;28;20470;-67
2024/03/03 00:18:00;;;;;;;4.03;3.45;;;12.50;78.50;;;;;;2066748;28;20108;-66
2024/03/03 00:19:00;;;;;;;4.45;3.22;;;12.50;78.50;;;;;;2069694;28;20030;-66
2024/03/03 00:20:01;;;;;;;5.13;3.35;;;12.50;78.60;;;;;;2070024;28;20479;-65
2024/03/03 00:21:02;;;;;;;5.53;3.55;;;12.50;78.90;;;;;;2069635;28;20372;-66
2024/03/03 00:22:03;;;;;;;3.65;3.22;;;12.50;78.50;;;;;;2060103;28;20045;-65
2024/03/03 00:23:04;;;;;;;7.70;3.70;;;12.50;78.50;;;;;;2061851;28;20109;-66
2024/03/03 00:24:05;;;;;;;6.20;3.33;;;12.50;78.50;;;;;;2058936;28;20027;-65
2024/03/03 00:25:06;;;;;;;4.25;3.00;;;12.50;78.50;;;;;;2069548;28;20062;-65
2024/03/03 00:26:07;;;;;;;5.13;3.40;;;12.50;78.60;;;;;;2071296;28;20038;-65
2024/03/03 00:27:07;;;;;;;6.35;3.63;;;12.50;78.50;;;;;;2067797;28;20049;-66
2024/03/03 00:28:07;;;;;;;3.85;3.10;;;12.50;78.50;;;;;;2067009;28;20150;-65
2024/03/03 00:29:08;;;;;;;5.82;2.95;;;12.50;78.60;;;;;;2068086;28;20078;-66
2024/03/03 00:30:09;;;;;;;4.53;3.35;;;12.50;78.80;;;;;;2068005;28;20045;-66
2024/03/03 00:31:10;;;;;;;4.78;3.70;;;12.50;78.90;;;;;;2068974;28;20029;-64
2024/03/03 00:32:10;;;;;;;5.20;3.60;;;12.50;78.70;;;;;;2068885;28;20064;-65
2024/03/03 00:33:11;;;;;;;4.63;3.40;;;12.50;78.70;;;;;;2067366;28;20030;-65
2024/03/03 00:34:11;;;;;;;4.43;3.42;;;12.50;78.60;;;;;;2069578;28;20026;-65
2024/03/03 00:35:14;;;;;;;3.88;3.35;;;12.40;78.50;;;;;;2070081;28;20026;-64
2024/03/03 00:36:15;;;;;;;4.80;3.70;;;12.40;78.50;;;;;;2068517;28;20382;-66
2024/03/03 00:37:18;;;;;;;4.72;3.15;;;12.40;78.70;;;;;;2069576;28;20026;-66
2024/03/03 00:38:18;;;;;;;4.07;3.53;;;12.40;78.90;;;;;;2069572;28;20033;-65
2024/03/03 00:39:19;;;;;;;3.85;3.17;;;12.40;78.90;;;;;;2067560;28;20033;-65
2024/03/03 00:40:19;;;;;;;5.03;3.25;;;12.40;79.00;;;;;;2070584;28;20102;-64
2024/03/03 00:41:20;;;;;;;4.97;3.40;;;12.40;79.20;;;;;;2068839;28;20022;-65
2024/03/03 00:42:20;;;;;;;4.57;3.45;;;12.40;79.20;;;;;;2068859;28;20029;-65
2024/03/03 00:43:21;;;;;;;3.97;2.85;;;12.40;79.30;;;;;;2068235;28;20053;-67
2024/03/03 00:44:21;;;;;;;4.38;3.00;;;12.40;79.30;;;;;;2066340;28;20045;-65
2024/03/03 00:45:22;;;;;;;7.05;3.30;;;12.40;79.30;;;;;;2068839;28;20050;-65
2024/03/03 00:46:22;;;;;;;4.07;3.28;;;12.40;79.30;;;;;;2070141;28;20482;-65
2024/03/03 00:47:23;;;;;;;4.40;2.80;;;12.40;79.20;;;;;;2066554;28;20546;-65
2024/03/03 00:48:23;;;;;;;4.63;3.13;;;12.30;79.30;;;;;;2067768;28;20419;-64
2024/03/03 00:49:24;;;;;;;5.40;3.45;;;12.40;79.60;;;;;;2066969;28;20021;-65
2024/03/03 00:50:27;;;;;;;3.90;3.10;;;12.30;79.50;;;;;;2067419;28;20023;-66
2024/03/03 00:51:30;;;;;;;4.50;2.95;;;12.30;79.70;;;;;;2069698;28;20447;-66
2024/03/03 00:52:30;;;;;;;4.18;2.95;;;12.30;79.80;;;;;;2068321;28;20057;-65
2024/03/03 00:53:31;;;;;;;4.70;2.67;;;12.30;79.80;;;;;;2068730;28;20022;-66
2024/03/03 00:54:31;;;;;;;4.60;3.33;;;12.20;80.00;;;;;;2069740;28;20022;-65
2024/03/03 00:55:33;;;;;;;3.47;2.90;;;12.20;79.90;;;;;;2068130;28;20021;-65
2024/03/03 00:56:33;;;;;;;3.35;2.83;;;12.20;80.00;;;;;;2069938;28;20206;-65
2024/03/03 00:57:40;;;;;;;3.20;2.65;;;12.20;80.10;;;;;;2069083;28;20150;-65
2024/03/03 00:58:41;;;;;;;3.85;3.35;;;12.20;80.30;;;;;;2067793;28;20026;-65
2024/03/03 00:59:42;;;;;;;4.20;3.10;;;12.10;80.20;;;;;;2067435;28;20057;-67
2024/03/03 01:00:44;;;;;;;3.88;2.72;;;12.10;80.10;;;;;;2066817;28;20044;-67
2024/03/03 01:01:44;;;;;;;4.90;3.40;;;12.10;80.30;;;;;;2070151;28;20038;-66
2024/03/03 01:02:45;;;;;;;5.15;3.15;;;12.00;80.20;;;;;;2067414;28;20058;-66
2024/03/03 01:03:46;;;;;;;5.70;2.58;;;12.00;80.40;;;;;;2068352;28;20022;-66
2024/03/03 01:04:50;;;;;;;3.80;2.90;;;12.00;80.50;;;;;;2069487;28;20030;-66
2024/03/03 01:05:51;;;;;;;4.22;2.90;;;12.00;80.70;;;;;;2069027;28;20034;-66
2024/03/03 01:06:51;;;;;;;4.28;3.28;;;11.90;80.80;;;;;;2066340;28;20030;-66
2024/03/03 01:07:52;;;;;;;5.93;2.92;;;11.90;80.80;;;;;;2068587;28;20075;-65
2024/03/03 01:08:53;;;;;;;3.55;3.20;;;11.90;80.90;;;;;;2067645;28;20053;-65
2024/03/03 01:10:01;;;;;;;5.20;2.95;;;11.90;80.80;;;;;;2068091;28;20034;-66
2024/03/03 01:11:02;;;;;;;3.28;2.53;;;11.80;81.00;;;;;;2067010;28;20057;-65
2024/03/03 01:12:02;;;;;;;4.68;3.55;;;11.80;80.90;;;;;;2068223;28;20044;-67
2024/03/03 01:13:03;;;;;;;4.38;3.30;;;11.80;81.00;;;;;;2068340;28;20029;-67
2024/03/03 01:14:04;;;;;;;3.78;3.10;;;11.70;81.00;;;;;;2067237;28;20062;-65
2024/03/03 01:15:08;;;;;;;5.32;3.20;;;11.80;81.10;;;;;;2066389;28;20030;-65
2024/03/03 01:16:09;;;;;;;5.22;2.83;;;11.70;81.00;;;;;;2067572;28;20542;-65
2024/03/03 01:17:10;;;;;;;4.38;3.50;;;11.70;81.00;;;;;;2070246;28;20478;-66
2024/03/03 01:18:10;;;;;;;3.10;2.63;;;11.70;81.90;;;;;;2068890;28;20033;-66
2024/03/03 01:19:11;;;;;;;4.00;2.90;;;11.60;81.20;;;;;;2071079;28;20018;-65
2024/03/03 01:20:12;;;;;;;4.38;3.15;;;11.60;81.40;;;;;;2066926;28;20057;-66
2024/03/03 01:21:12;;;;;;;6.95;3.50;;;11.60;81.60;;;;;;2071592;28;20040;-65
2024/03/03 01:22:13;;;;;;;4.55;3.28;;;11.60;81.70;;;;;;2073652;28;20087;-67
2024/03/03 01:23:16;;;;;;;4.60;3.20;;;11.50;81.60;;;;;;2075534;28;20030;-65
2024/03/03 01:24:16;;;;;;;3.58;2.78;;;11.50;81.70;;;;;;2076061;28;20030;-67
2024/03/03 01:25:17;;;;;;;4.38;3.47;;;11.40;81.80;;;;;;2077417;28;20064;-66
2024/03/03 01:26:18;;;;;;;4.93;3.38;;;11.50;82.00;;;;;;2077123;28;20552;-67
2024/03/03 01:27:18;;;;;;;3.65;3.33;;;11.40;82.20;;;;;;2076291;28;20112;-67
2024/03/03 01:28:19;;;;;;;4.25;3.17;;;11.40;82.40;;;;;;2067231;28;20026;-65
2024/03/03 01:29:19;;;;;;;3.72;2.80;;;11.40;83.20;;;;;;2069520;28;20029;-66
2024/03/03 01:30:21;;;;;;;4.38;3.05;;;11.40;82.60;;;;;;2075372;28;20533;-65
2024/03/03 01:31:21;;;;;;;5.93;3.35;;;11.40;82.60;;;;;;2076892;28;20145;-66
2024/03/03 01:32:25;;;;;;;2.70;2.50;;;11.40;82.60;;;;;;2075905;28;20072;-65
2024/03/03 01:33:25;;;;;;;6.53;3.42;;;11.40;82.80;;;;;;2077736;28;20010;-66
2024/03/03 01:34:26;;;;;;;4.07;3.10;;;11.30;82.70;;;;;;2075237;28;20024;-65
2024/03/03 01:35:26;;;;;;;4.15;3.25;;;11.30;82.80;;;;;;2078690;28;20073;-66
2024/03/03 01:36:28;;;;;;;4.57;3.17;;;11.30;82.70;;;;;;2073721;28;20018;-65
2024/03/03 01:37:28;;;;;;;4.65;3.28;;;11.30;82.80;;;;;;2075101;28;20033;-66
2024/03/03 01:38:29;;;;;;;5.13;3.05;;;11.30;82.80;;;;;;2075483;28;20029;-64
2024/03/03 01:39:36;;;;;;;4.20;3.38;;;11.20;82.90;;;;;;2076092;28;20076;-66
2024/03/03 01:40:36;;;;;;;4.25;3.40;;;11.20;83.10;;;;;;2076515;28;20026;-65
2024/03/03 01:41:37;;;;;;;5.30;3.97;;;11.20;83.10;;;;;;2077024;28;20018;-65
2024/03/03 01:42:37;;;;;;;3.05;2.75;;;11.20;83.10;;;;;;2077193;28;20022;-67
2024/03/03 01:43:37;;;;;;;3.13;2.83;;;11.10;83.20;;;;;;2075094;28;20029;-66
2024/03/03 01:44:41;;;;;;;4.30;3.05;;;11.10;83.20;;;;;;2077433;28;20048;-67
2024/03/03 01:45:41;;;;;;;3.97;2.63;;;11.10;83.50;;;;;;2077542;28;20156;-66
2024/03/03 01:46:43;;;;;;;3.20;2.90;;;11.10;83.60;;;;;;2075444;28;20088;-66
2024/03/03 01:47:44;;;;;;;6.75;3.50;;;11.10;83.50;;;;;;2074330;28;20028;-66
2024/03/03 01:48:47;;;;;;;3.40;3.08;;;11.10;83.50;;;;;;2078324;28;20063;-67
2024/03/03 01:49:50;;;;;;;5.78;3.58;;;11.00;83.60;;;;;;2075236;28;20077;-67
2024/03/03 01:50:52;;;;;;;4.00;3.42;;;11.00;83.60;;;;;;2077653;28;20036;-66
2024/03/03 01:51:53;;;;;;;6.53;4.55;;;11.00;83.70;;;;;;2076422;28;20079;-66
2024/03/03 01:52:55;;;;;;;3.97;2.80;;;11.00;83.80;;;;;;2068833;28;20111;-66
2024/03/03 01:53:59;;;;;;;5.30;3.25;;;10.90;83.70;;;;;;2068692;28;20085;-67
2024/03/03 01:55:00;;;;;;;4.97;3.17;;;10.90;83.70;;;;;;2075835;28;20037;-66
2024/03/03 01:56:01;;;;;;;5.07;3.40;;;10.90;83.80;;;;;;2075444;28;20096;-66
2024/03/03 01:57:09;;;;;;;3.53;3.03;;;10.90;83.90;;;;;;2069060;28;20112;-66
2024/03/03 01:58:11;;;;;;;3.53;3.10;;;10.80;84.00;;;;;;2068899;28;20026;-66
2024/03/03 01:59:11;;;;;;;2.83;2.53;;;10.80;84.10;;;;;;2069196;28;20414;-66
2024/03/03 02:00:13;;;;;;;4.90;3.22;;;10.80;84.30;;;;;;2067849;28;20046;-66
2024/03/03 02:01:15;;;;;;;3.40;2.85;;;10.80;84.30;;;;;;2076367;28;20418;-66
2024/03/03 02:02:15;;;;;;;3.60;3.00;;;10.80;84.50;;;;;;2074221;28;20105;-65
2024/03/03 02:03:17;;;;;;;4.30;2.80;;;10.80;84.50;;;;;;2074852;28;20149;-67
2024/03/03 02:04:18;;;;;;;4.93;3.30;;;10.70;84.50;;;;;;2078323;28;20021;-67
2024/03/03 02:05:19;;;;;;;4.72;3.63;;;10.70;84.70;;;;;;2067343;28;20487;-67
2024/03/03 02:06:24;;;;;;;3.67;2.88;;;10.70;84.70;;;;;;2068719;28;20604;-67
2024/03/03 02:07:28;;;;;;;4.63;3.17;;;10.70;85.00;;;;;;2076699;28;20104;-66
2024/03/03 02:08:30;;;;;;;4.25;3.05;;;10.60;85.10;;;;;;2076812;28;20024;-67
2024/03/03 02:09:30;;;;;;;3.95;2.97;;;10.60;85.40;;;;;;2077908;28;20022;-68
2024/03/03 02:10:32;;;;;;;4.63;3.53;;;10.60;85.60;;;;;;2077836;28;20025;-67
2024/03/03 02:11:33;;;;;;;6.10;3.35;;;10.60;85.80;;;;;;2074226;28;20112;-67
2024/03/03 02:12:33;;;;;;;5.75;3.13;;;10.60;86.00;;;;;;2067781;28;20538;-67
2024/03/03 02:13:34;;;;;;;4.20;3.17;;;10.50;86.20;;;;;;2065623;28;20550;-67
2024/03/03 02:14:35;;;;;;;4.90;3.53;;;10.60;86.30;;;;;;2075016;28;20429;-68
2024/03/03 02:15:36;;;;;;;4.35;3.15;;;10.50;86.40;;;;;;2077127;28;20025;-67
2024/03/03 02:16:36;;;;;;;4.05;2.95;;;10.60;86.70;;;;;;2076311;28;20052;-67
2024/03/03 02:17:37;;;;;;;3.03;2.72;;;10.60;87.00;;;;;;2074689;28;20470;-66
2024/03/03 02:18:37;;;;;;;3.75;3.00;;;10.60;87.00;;;;;;2076236;28;20017;-66
2024/03/03 02:19:38;;;;;;;6.88;3.35;;;10.60;87.20;;;;;;2075774;28;20041;-67
2024/03/03 02:20:44;;;;;;;3.88;3.33;;;10.50;87.30;;;;;;2068338;28;20474;-66
2024/03/03 02:21:44;;;;;;;3.90;2.85;;;10.50;87.40;;;;;;2059633;28;20034;-67
2024/03/03 02:22:45;;;;;;;4.35;2.80;;;10.50;87.50;;;;;;2069337;28;20038;-67
2024/03/03 02:23:46;;;;;;;3.42;3.03;;;10.50;87.80;;;;;;2076975;28;20046;-66
2024/03/03 02:24:47;;;;;;;3.38;2.90;;;10.60;88.00;;;;;;2074424;28;20022;-67
2024/03/03 02:25:47;;;;;;;4.22;3.17;;;10.60;88.20;;;;;;2068119;28;20038;-66
2024/03/03 02:26:51;;;;;;;3.53;2.83;;;10.50;88.20;;;;;;2069873;28;20522;-66
2024/03/03 02:27:52;;;;;;;3.08;2.80;;;10.50;88.30;;;;;;2078811;28;20037;-65
2024/03/03 02:28:54;;;;;;;3.92;2.65;;;10.60;88.50;;;;;;2078268;28;20508;-66
2024/03/03 02:29:54;;;;;;;4.68;3.40;;;10.50;88.50;;;;;;2074533;28;20038;-66
2024/03/03 02:30:55;;;;;;;4.53;2.97;;;10.50;88.60;;;;;;2076228;28;20047;-66
2024/03/03 02:31:56;;;;;;;4.82;3.42;;;10.50;88.60;;;;;;2075600;28;20471;-66
2024/03/03 02:32:56;;;;;;;4.50;2.97;;;10.50;88.70;;;;;;2077441;28;20544;-65
2024/03/03 02:33:57;;;;;;;3.97;3.10;;;10.50;88.80;;;;;;2075272;28;20114;-65
2024/03/03 02:34:58;;;;;;;4.25;3.05;;;10.50;88.90;;;;;;2077421;28;20057;-66
2024/03/03 02:35:58;;;;;;;4.28;3.10;;;10.50;89.10;;;;;;2073820;28;20128;-65
2024/03/03 02:36:59;;;;;;;4.65;2.80;;;10.50;89.40;;;;;;2075579;28;20662;-65
2024/03/03 02:37:59;;;;;;;5.28;3.30;;;10.50;89.50;;;;;;2076740;28;20117;-66
2024/03/03 02:39:00;;;;;;;4.00;2.70;;;10.50;89.60;;;;;;2074970;28;20030;-66
2024/03/03 02:40:00;;;;;;;6.90;3.60;;;10.50;89.70;;;;;;2076489;28;20022;-65
2024/03/03 02:41:01;;;;;;;4.72;3.30;;;10.50;89.70;;;;;;2075956;28;20045;-65
2024/03/03 02:42:01;;;;;;;5.32;3.08;;;10.60;89.90;;;;;;2075439;28;20370;-66
2024/03/03 02:43:02;;;;;;;6.57;3.33;;;10.60;90.00;;;;;;2075732;28;20505;-66
2024/03/03 02:44:03;;;;;;;5.22;3.35;;;10.50;89.90;;;;;;2070302;28;20533;-66
2024/03/03 02:45:04;;;;;;;4.15;3.00;;;10.50;89.90;;;;;;2071780;28;21024;-66
2024/03/03 02:46:05;;;;;;;5.70;3.22;;;10.50;89.90;;;;;;2073750;28;20044;-66
2024/03/03 02:47:05;;;;;;;3.35;3.05;;;10.50;90.00;;;;;;2076182;28;20037;-67
2024/03/03 02:48:09;;;;;;;3.85;3.25;;;10.50;90.10;;;;;;2075004;28;20033;-65
2024/03/03 02:49:10;;;;;;;3.83;3.20;;;10.50;90.10;;;;;;2074270;28;20022;-65
2024/03/03 02:50:10;;;;;;;4.38;3.35;;;10.50;90.20;;;;;;2075974;28;20118;-65
2024/03/03 02:51:11;;;;;;;4.13;3.72;;;10.50;90.20;;;;;;2077493;28;20083;-65
2024/03/03 02:52:11;;;;;;;4.03;3.25;;;10.50;90.20;;;;;;2075123;28;20029;-67
2024/03/03 02:53:12;;;;;;;3.90;3.25;;;10.50;90.30;;;;;;2075999;28;20025;-66
2024/03/03 02:54:13;;;;;;;4.47;3.78;;;10.50;90.60;;;;;;2074362;28;20040;-65
2024/03/03 02:55:13;;;;;;;5.03;3.90;;;10.50;90.30;;;;;;2075422;28;20018;-64
2024/03/03 02:56:14;;;;;;;4.55;3.38;;;10.50;90.30;;;;;;2077620;28;20018;-65
2024/03/03 02:57:14;;;;;;;4.07;3.17;;;10.50;90.30;;;;;;2075430;28;20111;-65
2024/03/03 02:58:22;;;;;;;4.65;3.40;;;10.50;90.30;;;;;;2074695;28;20100;-66
2024/03/03 02:59:22;;;;;;;3.92;3.47;;;10.50;90.40;;;;;;2076174;28;20342;-66
2024/03/03 03:00:23;;;;;;;5.00;3.63;;;10.50;90.40;;;;;;2075438;28;20052;-65
2024/03/03 03:01:24;;;;;;;4.03;3.25;;;10.50;90.40;;;;;;2076567;28;20022;-65
2024/03/03 03:02:27;;;;;;;3.67;3.15;;;10.50;90.40;;;;;;2075283;28;20069;-67
2024/03/03 03:03:28;;;;;;;3.55;3.20;;;10.50;90.50;;;;;;2077179;28;20048;-65
2024/03/03 03:04:29;;;;;;;3.58;2.92;;;10.50;90.60;;;;;;2076984;28;20022;-65
2024/03/03 03:05:29;;;;;;;3.58;2.78;;;10.50;90.70;;;;;;2076520;28;20108;-66
2024/03/03 03:06:30;;;;;;;3.50;2.85;;;10.50;90.80;;;;;;2074291;28;20022;-66
2024/03/03 03:07:30;;;;;;;3.42;2.95;;;10.50;90.80;;;;;;2077877;28;20024;-66
2024/03/03 03:08:34;;;;;;;3.53;3.22;;;10.50;90.80;;;;;;2074507;28;20109;-66
2024/03/03 03:09:34;;;;;;;4.25;3.33;;;10.50;90.90;;;;;;2076148;28;20030;-67
2024/03/03 03:10:35;;;;;;;5.32;3.15;;;10.50;90.90;;;;;;2075563;28;20017;-67
2024/03/03 03:11:37;;;;;;;4.53;3.20;;;10.50;90.90;;;;;;2074611;28;20044;-67
2024/03/03 03:12:38;;;;;;;3.45;2.83;;;10.50;90.80;;;;;;2074815;28;20109;-67
2024/03/03 03:13:38;;;;;;;5.03;2.92;;;10.50;90.90;;;;;;2076732;28;20037;-66
2024/03/03 03:14:39;;;;;;;2.90;2.60;;;10.50;90.90;;;;;;2067335;28;20494;-66
2024/03/03 03:15:40;;;;;;;3.13;2.72;;;10.50;90.90;;;;;;2066078;28;20463;-66
2024/03/03 03:16:41;;;;;;;4.07;2.75;;;10.50;90.90;;;;;;2072746;28;20435;-66
2024/03/03 03:17:42;;;;;;;4.65;2.75;;;10.50;90.90;;;;;;2076058;28;20394;-67
2024/03/03 03:18:43;;;;;;;4.28;3.38;;;10.50;90.90;;;;;;2077067;28;20112;-65
2024/03/03 03:19:46;;;;;;;4.30;3.38;;;10.50;90.90;;;;;;2075185;28;20073;-66
2024/03/03 03:20:47;;;;;;;3.05;2.75;;;10.50;91.00;;;;;;2075006;28;20022;-67
2024/03/03 03:21:47;;;;;;;5.97;3.22;;;10.50;91.00;;;;;;2076124;28;20038;-65
2024/03/03 03:22:48;;;;;;;3.97;2.92;;;10.50;91.00;;;;;;2075060;28;20052;-65
2024/03/03 03:23:48;;;;;;;3.40;3.10;;;10.50;91.00;;;;;;2074945;28;20033;-65
2024/03/03 03:24:50;;;;;;;6.05;3.13;;;10.50;91.00;;;;;;2074773;28;20040;-65
2024/03/03 03:25:50;;;;;;;4.07;2.88;;;10.50;91.00;;;;;;2076106;28;20087;-66
2024/03/03 03:26:54;;;;;;;4.35;3.42;;;10.40;91.00;;;;;;2075098;28;20084;-64
2024/03/03 03:28:00;;;;;;;3.53;3.03;;;10.40;91.00;;;;;;2074687;28;20026;-66
2024/03/03 03:29:02;;;;;;;3.63;2.97;;;10.40;91.10;;;;;;2076715;28;20022;-66
2024/03/03 03:30:06;;;;;;;3.53;2.80;;;10.40;91.10;;;;;;2070359;28;20010;-66
2024/03/03 03:31:06;;;;;;;4.47;2.95;;;10.40;91.10;;;;;;2067849;28;20076;-65
2024/03/03 03:32:07;;;;;;;4.30;3.25;;;10.40;91.20;;;;;;2077196;28;20069;-67
2024/03/03 03:33:07;;;;;;;5.22;3.08;;;10.40;91.20;;;;;;2073481;28;20125;-66
2024/03/03 03:34:08;;;;;;;3.03;2.72;;;10.40;91.20;;;;;;2072985;28;20033;-67
2024/03/03 03:35:09;;;;;;;2.90;2.60;;;10.40;91.20;;;;;;2077680;28;20041;-66
2024/03/03 03:36:10;;;;;;;6.05;3.47;;;10.40;91.20;;;;;;2069036;28;20105;-67
2024/03/03 03:37:12;;;;;;;3.42;2.88;;;10.30;91.20;;;;;;2068808;28;20019;-66
2024/03/03 03:38:12;;;;;;;5.43;3.15;;;10.40;91.20;;;;;;2075582;28;20478;-67
2024/03/03 03:39:14;;;;;;;6.20;3.33;;;10.30;91.20;;;;;;2076068;28;20413;-66
2024/03/03 03:40:15;;;;;;;4.85;3.15;;;10.30;91.20;;;;;;2076552;28;20535;-65
2024/03/03 03:41:20;;;;;;;4.47;3.33;;;10.30;91.20;;;;;;2076092;28;20044;-66
2024/03/03 03:42:20;;;;;;;4.82;3.00;;;10.30;91.30;;;;;;2076905;28;20037;-66
2024/03/03 03:43:21;;;;;;;5.57;3.45;;;10.30;91.30;;;;;;2077947;28;20121;-66
2024/03/03 03:44:21;;;;;;;3.72;2.80;;;10.30;91.30;;;;;;2077903;28;20048;-66
2024/03/03 03:45:22;;;;;;;2.83;2.50;;;10.30;91.30;;;;;;2077280;28;20014;-65
2024/03/03 03:46:23;;;;;;;4.60;3.03;;;10.20;91.30;;;;;;2076691;28;20108;-66
2024/03/03 03:47:23;;;;;;;3.92;3.13;;;10.20;91.20;;;;;;2076274;28;20026;-67
2024/03/03 03:48:24;;;;;;;4.07;3.20;;;10.20;91.20;;;;;;2075995;28;20113;-66
2024/03/03 03:49:25;;;;;;;4.40;3.08;;;10.20;91.30;;;;;;2077879;28;20017;-66
2024/03/03 03:50:25;;;;;;;3.92;3.50;;;10.20;91.40;;;;;;2077092;28;20013;-67
2024/03/03 03:51:26;;;;;;;4.38;3.25;;;10.20;91.40;;;;;;2078035;28;20450;-66
2024/03/03 03:52:27;;;;;;;3.88;3.40;;;10.20;91.50;;;;;;2077151;28;20022;-66
2024/03/03 03:53:28;;;;;;;5.85;3.75;;;10.20;91.50;;;;;;2069767;28;20121;-66
2024/03/03 03:54:29;;;;;;;5.05;3.20;;;10.20;91.60;;;;;;2066721;28;20026;-65
2024/03/03 03:55:30;;;;;;;3.65;3.08;;;10.10;91.60;;;;;;2069686;28;20041;-67
2024/03/03 03:56:34;;;;;;;4.35;3.38;;;10.10;91.70;;;;;;2068695;28;20023;-64
2024/03/03 03:57:35;;;;;;;3.78;3.15;;;10.10;91.70;;;;;;2069579;28;20029;-64
2024/03/03 03:58:36;;;;;;;4.80;3.50;;;10.00;91.70;;;;;;2069989;28;20030;-64
2024/03/03 03:59:42;;;;;;;5.30;3.78;;;10.00;91.80;;;;;;2076379;28;20018;-65
2024/03/03 04:00:45;;;;;;;5.30;3.45;;;10.00;91.80;;;;;;2076132;28;20025;-66
2024/03/03 04:01:46;;;;;;;4.03;3.10;;;10.00;91.90;;;;;;2072707;28;20091;-65
2024/03/03 04:02:46;;;;;;;4.40;2.88;;;10.00;91.80;;;;;;2077184;28;20686;-65
2024/03/03 04:03:47;;;;;;;3.97;3.47;;;9.90;91.80;;;;;;2076291;28;20033;-65
2024/03/03 04:04:48;;;;;;;6.88;3.75;;;10.00;91.90;;;;;;2077180;28;20487;-64
2024/03/03 04:05:48;;;;;;;5.43;3.90;;;9.90;91.90;;;;;;2075913;28;20025;-65
2024/03/03 04:06:49;;;;;;;4.82;3.70;;;9.90;92.00;;;;;;2077441;28;20030;-64
2024/03/03 04:07:49;;;;;;;4.70;3.35;;;9.90;92.10;;;;;;2076214;28;20058;-65
2024/03/03 04:08:50;;;;;;;5.80;3.88;;;9.90;92.10;;;;;;2075634;28;20045;-64
2024/03/03 04:09:51;;;;;;;6.25;3.60;;;9.90;92.10;;;;;;2079098;28;20048;-67
2024/03/03 04:10:51;;;;;;;3.78;3.35;;;9.90;92.10;;;;;;2077819;28;20041;-67
2024/03/03 04:11:56;;;;;;;3.40;2.92;;;9.80;92.10;;;;;;2066970;28;20074;-65
2024/03/03 04:12:57;;;;;;;5.28;3.65;;;9.80;92.10;;;;;;2067759;28;20032;-66
2024/03/03 04:14:00;;;;;;;4.15;3.30;;;9.90;92.10;;;;;;2075117;28;20021;-67
2024/03/03 04:15:04;;;;;;;5.78;3.75;;;9.80;92.10;;;;;;2077285;28;20100;-65
2024/03/03 04:16:08;;;;;;;6.15;3.78;;;9.80;92.20;;;;;;2074545;28;20475;-66
2024/03/03 04:17:08;;;;;;;3.65;3.35;;;9.80;92.30;;;;;;2076559;28;20108;-66
2024/03/03 04:18:09;;;;;;;6.75;4.45;;;9.80;92.20;;;;;;2076386;28;20064;-64
2024/03/03 04:19:09;;;;;;;4.25;3.10;;;9.80;92.30;;;;;;2076041;28;20061;-65
2024/03/03 04:20:10;;;;;;;4.28;3.83;;;9.70;92.30;;;;;;2069888;28;20371;-65
2024/03/03 04:21:12;;;;;;;4.90;3.35;;;9.70;92.30;;;;;;2065668;28;20129;-67
2024/03/03 04:22:12;;;;;;;5.07;3.30;;;9.70;92.30;;;;;;2071405;28;20034;-64
2024/03/03 04:23:13;;;;;;;5.25;3.53;;;9.70;92.30;;;;;;2069237;28;20710;-65
2024/03/03 04:24:14;;;;;;;5.00;3.58;;;9.70;92.30;;;;;;2069269;28;20057;-65
2024/03/03 04:25:15;;;;;;;4.40;3.70;;;9.70;92.30;;;;;;2068008;28;20029;-66
2024/03/03 04:26:15;;;;;;;4.70;3.65;;;9.70;92.30;;;;;;2067720;28;20425;-65
2024/03/03 04:27:18;;;;;;;4.32;3.40;;;9.70;92.40;;;;;;2068526;28;20061;-65
2024/03/03 04:28:22;;;;;;;4.72;3.40;;;9.60;92.40;;;;;;2068734;28;20034;-67
2024/03/03 04:29:22;;;;;;;4.30;3.47;;;9.60;92.40;;;;;;2070377;28;20061;-66
2024/03/03 04:30:23;;;;;;;3.92;3.30;;;9.60;92.50;;;;;;2068879;28;20037;-65
2024/03/03 04:31:23;;;;;;;4.10;3.42;;;9.60;92.40;;;;;;2066973;28;20026;-66
2024/03/03 04:32:24;;;;;;;4.88;3.35;;;9.60;92.40;;;;;;2067946;28;20065;-66
2024/03/03 04:33:24;;;;;;;4.45;3.13;;;9.60;92.40;;;;;;2068445;28;20029;-65
2024/03/03 04:34:25;;;;;;;3.95;3.47;;;9.60;92.40;;;;;;2066699;28;20022;-64
2024/03/03 04:35:26;;;;;;;5.43;3.80;;;9.50;92.40;;;;;;2068483;28;20018;-66
2024/03/03 04:36:26;;;;;;;4.68;3.72;;;9.50;92.40;;;;;;2069822;28;20057;-65
2024/03/03 04:37:27;;;;;;;5.88;3.97;;;9.50;92.50;;;;;;2070231;28;20038;-66
2024/03/03 04:38:27;;;;;;;5.00;4.13;;;9.50;92.60;;;;;;2069079;28;20018;-66
2024/03/03 04:39:32;;;;;;;6.88;4.30;;;9.50;92.70;;;;;;2069059;28;20029;-65
2024/03/03 04:40:32;;;;;;;5.63;3.65;;;9.50;92.80;;;;;;2069495;28;20029;-66
2024/03/03 04:41:33;;;;;;;6.75;3.28;;;9.40;92.80;;;;;;2066701;28;20094;-65
2024/03/03 04:42:33;;;;;;;4.88;3.60;;;9.40;92.80;;;;;;2067892;28;20486;-65
2024/03/03 04:43:40;;;;;;;7.30;3.63;;;9.40;92.80;;;;;;2069725;28;20033;-67
2024/03/03 04:44:42;;;;;;;5.35;3.85;;;9.40;92.80;;;;;;2060093;28;20094;-65
2024/03/03 04:45:42;;;;;;;4.25;3.63;;;9.40;92.90;;;;;;2062300;28;20519;-66
2024/03/03 04:46:43;;;;;;;5.45;3.60;;;9.40;92.80;;;;;;2068510;28;20493;-65
2024/03/03 04:47:43;;;;;;;5.53;3.83;;;9.40;92.80;;;;;;2067203;28;20038;-67
2024/03/03 04:48:44;;;;;;;6.47;4.00;;;9.40;92.80;;;;;;2070987;28;20041;-65
2024/03/03 04:49:45;;;;;;;4.93;3.40;;;9.30;92.80;;;;;;2068554;28;20052;-65
2024/03/03 04:50:45;;;;;;;6.32;4.45;;;9.30;92.80;;;;;;2070187;28;20044;-66
2024/03/03 04:51:46;;;;;;;3.90;3.50;;;9.30;92.90;;;;;;2069006;28;20399;-67
2024/03/03 04:52:46;;;;;;;4.38;3.75;;;9.30;92.90;;;;;;2061802;28;20022;-65
2024/03/03 04:53:47;;;;;;;7.47;4.15;;;9.30;92.90;;;;;;2058147;28;20478;-67
2024/03/03 04:54:47;;;;;;;4.65;3.30;;;9.20;93.00;;;;;;2067921;28;20534;-66
2024/03/03 04:55:48;;;;;;;4.75;4.22;;;9.20;93.00;;;;;;2066515;28;20030;-66
2024/03/03 04:56:48;;;;;;;6.90;3.67;;;9.20;93.10;;;;;;2068655;28;20025;-66
2024/03/03 04:57:52;;;;;;;5.55;4.03;;;9.20;93.10;;;;;;2057927;28;20026;-67
2024/03/03 04:58:52;;;;;;;4.38;3.42;;;9.20;93.20;;;;;;2059346;28;20498;-66
2024/03/03 04:59:56;;;;;;;4.88;3.78;;;9.20;93.20;;;;;;2069756;28;20034;-65
2024/03/03 05:00:56;;;;;;;4.88;4.05;;;9.20;93.20;;;;;;2068413;28;20022;-65
2024/03/03 05:01:57;;;;;;;5.80;3.80;;;9.10;93.20;;;;;;2069882;28;20026;-65
2024/03/03 05:02:57;;;;;;;4.85;4.03;;;9.10;93.20;;;;;;2069949;28;20107;-65
2024/03/03 05:03:58;;;;;;;5.10;3.80;;;9.20;93.40;;;;;;2069104;28;20516;-66
2024/03/03 05:04:58;;;;;;;7.20;3.97;;;9.10;93.40;;;;;;2070449;28;20026;-66
2024/03/03 05:06:00;;;;;;;4.18;3.60;;;9.10;93.40;;;;;;2070639;28;20080;-67
2024/03/03 05:07:00;;;;;;;7.65;3.90;;;9.10;93.50;;;;;;2069006;28;20026;-67
2024/03/03 05:08:04;;;;;;;4.05;3.60;;;9.10;93.50;;;;;;2069026;28;20109;-66
2024/03/03 05:09:09;;;;;;;5.78;4.28;;;9.10;93.60;;;;;;2067457;28;20651;-66
2024/03/03 05:10:12;;;;;;;4.80;3.80;;;9.10;93.60;;;;;;2068489;28;20027;-65
2024/03/03 05:11:16;;;;;;;4.82;3.58;;;9.10;93.70;;;;;;2067724;28;20081;-67
2024/03/03 05:12:17;;;;;;;6.28;4.03;;;9.10;93.70;;;;;;2069716;28;20042;-66
2024/03/03 05:13:17;;;;;;;6.80;4.38;;;9.00;93.80;;;;;;2068661;28;20108;-66
2024/03/03 05:14:18;;;;;;;4.75;3.92;;;9.00;93.80;;;;;;2068038;28;20030;-66
2024/03/03 05:15:18;;;;;;;4.72;4.07;;;9.00;93.80;;;;;;2068365;28;20646;-65
2024/03/03 05:16:21;;;;;;;5.00;3.92;;;9.00;93.90;;;;;;2067801;28;20097;-66
2024/03/03 05:17:23;;;;;;;4.65;4.22;;;9.00;93.90;;;;;;2068207;28;20025;-65
2024/03/03 05:18:23;;;;;;;4.85;4.05;;;9.00;94.00;;;;;;2067658;28;20029;-66
2024/03/03 05:19:24;;;;;;;8.23;4.43;;;9.00;94.00;;;;;;2068116;28;20030;-65
2024/03/03 05:20:25;;;;;;;5.93;3.83;;;9.00;94.10;;;;;;2068633;28;20018;-65